Terminal Aerodrome Forecast
Issued by NWS

Home | Current Version | Previous Version | Text Only | Print | Product List | Glossary On
Versions: 1 2 3 4 5 6 7 8 9 10 11 12 13 14 15 16 17 18
808
FTUS41 KBGM 271122
TAFITH
TAF
KITH 271122Z 2712/2812 15008KT P6SM SCT200
      TEMPO 2712/2714 BKN012
     FM271400 16012KT P6SM SCT040
     FM271800 17012G22KT P6SM BKN040
      TEMPO 2802/2806 5SM TSRA BR BKN025CB
     FM280600 26008KT 5SM -SHRA BKN028
     FM280900 30008KT P6SM BKN035=

USA.gov is the U.S. government's official web portal to all federal, state and local government web resources and services.